| Date | Time | Temp. (oF) | Dew Point (oF) | Rel. Hum. (%) | Press. (in.) | Wind Dir. (deg.) | Wind Speed (mph) | Hourly Rainfall (i n.) |
|
|---|---|---|---|---|---|---|---|---|---|
| 1 | 04/21 | 24:00 | 41 | 35 | 81 | 30.20 | 30 | 0 | 0.00 |
| 2 | 04/20 | 23:00 | 42 | 35 | 77 | 30.18 | 30 | 0 | 0.00 |
| 3 | 04/20 | 22:00 | 45 | 36 | 72 | 30.19 | 30 | 0 | 0.00 |
| 4 | 04/20 | 21:00 | 48 | 38 | 70 | 30.18 | 30 | 0 | 0.00 |
| 5 | 04/20 | 20:00 | 50 | 39 | 68 | 30.17 | 30 | 0 | 0.00 |
| 6 | 04/20 | 19:00 | 52 | 39 | 62 | 30.17 | 300 | 2 | 0.00 |
| 7 | 04/20 | 18:00 | 54 | 40 | 60 | 30.18 | 310 | 1 | 0.00 |
| 8 | 04/20 | 17:00 | 54 | 42 | 64 | 30.18 | 290 | 9 | 0.00 |
| 9 | 04/20 | 16:00 | 51 | 41 | 70 | 30.13 | 310 | 9 | 0.00 |
| 10 | 04/20 | 15:00 | 49 | 40 | 73 | 30.14 | 330 | 4 | 0.00 |
| 11 | 04/20 | 14:00 | 48 | 42 | 80 | 30.12 | 300 | 6 | 0.00 |
| 12 | 04/20 | 13:00 | 45 | 40 | 83 | 30.10 | 10 | 2 | 0.00 |
| 13 | 04/20 | 12:00 | 44 | 38 | 82 | 30.07 | 270 | 4 | 0.00 |
| 14 | 04/20 | 11:00 | 44 | 39 | 83 | 30.05 | 350 | 1 | 0.00 |
| 15 | 04/20 | 10:00 | 44 | 39 | 85 | 30.04 | 10 | 2 | 0.00 |
| 16 | 04/20 | 09:00 | 44 | 39 | 85 | 30.04 | 630 | 0 | 0.00 |
| 17 | miss | miss | miss | miss | miss | miss | miss | miss | |
| 18 | 04/24 | 25:18 | 44 | 39 | 85 | 29.97 | 630 | 0 | 0.00 |
| 19 | miss | miss | miss | miss | miss | miss | miss | miss | |
| 20 | 04/24 | 25:16 | 41 | 37 | 86 | 29.96 | 630 | 0 | 0.00 |
| 21 | miss | miss | miss | miss | miss | miss | miss | miss | |
| 22 | 04/20 | 08:31 | 43 | 38 | 85 | 29.95 | 630 | 0 | 0.00 |
| 23 | miss | miss | miss | miss | miss | miss | miss | miss | |
| 24 | 04/20 | 08:29 | 43 | 38 | 85 | 29.95 | 630 | 0 | 0.00 |
| 25 | miss | miss | miss | miss | miss | miss | miss | miss | |
| 26 | 04/20 | 08:28 | 43 | 38 | 85 | 29.95 | 630 | 0 | 0.00 |
| 27 | miss | miss | miss | miss | miss | miss | miss | miss | |
| 28 | 04/20 | 08:28 | 43 | 38 | 85 | 29.95 | 630 | 0 | 0.00 |
| 29 | miss | miss | miss | miss | miss | miss | miss | miss | |
| 30 | 04/20 | 08:28 | 43 | 38 | 85 | 29.95 | 630 | 0 | 0.00 |
| 31 | miss | miss | miss | miss | miss | miss | miss | miss | |
| 32 | 04/20 | 08:28 | 43 | 38 | 85 | 29.95 | 630 | 0 | 0.00 |
| 33 | miss | miss | miss | miss | miss | miss | miss | miss | |
| 34 | 04/20 | 08:28 | 43 | 38 | 85 | 29.95 | 630 | 0 | 0.00 |
| 35 | miss | miss | miss | miss | miss | miss | miss | miss | |
| 36 | 04/20 | 08:28 | 43 | 38 | 85 | 29.95 | 630 | 0 | 0.00 |
| 37 | miss | miss | miss | miss | miss | miss | miss | miss | |
| 38 | 04/20 | 08:28 | 43 | 38 | 85 | 29.95 | 630 | 0 | 0.00 |
| 39 | miss | miss | miss | miss | miss | miss | miss | miss | |
| 40 | 04/20 | 08:28 | 43 | 38 | 85 | 29.95 | 630 | 0 | 0.00 |
| 41 | 04/20 | 08:00 | 43 | 38 | 85 | 29.95 | 630 | 0 | 0.00 |
| 42 | 04/20 | 07:00 | 43 | 38 | 85 | 29.96 | 630 | 0 | 0.00 |
| 43 | 04/20 | 06:00 | 43 | 38 | 83 | 29.96 | 630 | 0 | 0.00 |
| 44 | 04/20 | 05:00 | 43 | 37 | 81 | 29.99 | 630 | 0 | 0.00 |
| 45 | 04/20 | 04:00 | 43 | 37 | 80 | 29.98 | 630 | 0 | 0.00 |
| 46 | 04/20 | 03:00 | 42 | 35 | 77 | 30.01 | 630 | 0 | 0.00 |
| 47 | 04/20 | 02:00 | 41 | 34 | 77 | 29.99 | 630 | 0 | 0.00 |
| 48 | 04/20 | 01:00 | 41 | 34 | 76 | 30.03 | 630 | 0 | 0.00 |
| 49 | 04/20 | 24:00 | 42 | 33 | 72 | 30.05 | 630 | 0 | 0.00 |
| 50 | 04/19 | 23:00 | 43 | 32 | 67 | 30.05 | 630 | 0 | 0.00 |
| 51 | 04/19 | 22:00 | 46 | 33 | 61 | 30.05 | 630 | 0 | 0.00 |
| 52 | 04/19 | 21:00 | 49 | 33 | 56 | 30.06 | 630 | 0 | 0.00 |
| 53 | 04/19 | 20:00 | 52 | 35 | 53 | 30.01 | 630 | 0 | 0.00 |
| 54 | 04/19 | 19:00 | 54 | 34 | 48 | 30.00 | 630 | 0 | 0.00 |
| 55 | 04/19 | 18:00 | 57 | 32 | 39 | 30.01 | 630 | 0 | 0.00 |
| 56 | 04/19 | 17:00 | 59 | 33 | 38 | 30.02 | 630 | 0 | 0.00 |
| 57 | 04/19 | 16:00 | 59 | 34 | 40 | 30.02 | 630 | 0 | 0.00 |
| 58 | 04/19 | 15:00 | 57 | 37 | 48 | 30.05 | 630 | 0 | 0.00 |
| 59 | 04/19 | 14:00 | 57 | 36 | 46 | 30.06 | 630 | 0 | 0.00 |
| 60 | 04/19 | 13:00 | 54 | 37 | 53 | 30.11 | 630 | 0 | 0.00 |
| 61 | 04/19 | 12:00 | 53 | 37 | 56 | 30.13 | 630 | 0 | 0.00 |
| 62 | 04/19 | 11:00 | 51 | 38 | 62 | 30.14 | 630 | 0 | 0.00 |
| 63 | 04/19 | 10:00 | 49 | 38 | 67 | 30.12 | 630 | 0 | 0.00 |
| 64 | 04/19 | 09:00 | 45 | 38 | 77 | 30.12 | 630 | 0 | 0.00 |
| 65 | 04/19 | 08:00 | 38 | 33 | 83 | 30.08 | 630 | 0 | 0.00 |
| 66 | 04/19 | 07:00 | 35 | 29 | 81 | 30.06 | 630 | 0 | 0.00 |
| 67 | 04/19 | 06:00 | 36 | 30 | 80 | 30.05 | 630 | 0 | 0.00 |
| 68 | 04/19 | 05:00 | 37 | 30 | 77 | 30.05 | 630 | 0 | 0.00 |
| 69 | 04/19 | 04:00 | 38 | 30 | 74 | 30.07 | 630 | 0 | 0.00 |
| 70 | 04/19 | 03:00 | 40 | 30 | 70 | 30.08 | 630 | 0 | 0.00 |
| 71 | 04/19 | 02:00 | 42 | 31 | 67 | 30.10 | 630 | 0 | 0.00 |
| 72 | 04/19 | 01:00 | 43 | 32 | 66 | 30.12 | 630 | 0 | 0.00 |
| 73 | 04/19 | 24:00 | 43 | 31 | 64 | 30.12 | 630 | 0 | 0.00 |
| 74 | 04/18 | 23:00 | 44 | 30 | 60 | 30.12 | 630 | 0 | 0.00 |